Time;durP1;ratioP1;P1;durP2;ratioP2;P2;SDS_P1;SDS_P2;PMS_P1;PMS_P2;Temp;Humidity;BMP_temperature;BMP_pressure;BME280_temperature;BME280_humidity;BME280_pressure;Samples;Min_cycle;Max_cycle;Signal;HPM_P1;HPM_P2
2022/10/21 00:01:19;;;;;;;7.10;6.10;;;13.50;99.90;;;;;;5025764;28;20396;-81
2022/10/21 00:04:04;;;;;;;7.63;5.37;;;13.50;99.90;;;;;;5025618;28;20431;-81
2022/10/21 00:06:48;;;;;;;6.20;5.60;;;13.50;99.90;;;;;;5025177;28;20388;-81
2022/10/21 00:09:32;;;;;;;5.57;5.00;;;13.60;99.90;;;;;;5024946;28;20391;-80
2022/10/21 00:12:18;;;;;;;8.70;6.00;;;13.60;99.90;;;;;;5024907;28;20415;-82
2022/10/21 00:15:05;;;;;;;7.50;5.00;;;13.50;99.90;;;;;;5024688;28;20384;-83
2022/10/21 00:17:49;;;;;;;6.63;6.10;;;13.50;99.90;;;;;;5024102;28;20416;-81
2022/10/21 00:20:34;;;;;;;5.90;5.30;;;13.50;99.90;;;;;;5024914;28;20467;-80
2022/10/21 00:23:18;;;;;;;8.17;6.53;;;13.60;99.90;;;;;;5022588;28;20716;-80
2022/10/21 00:26:03;;;;;;;5.93;5.43;;;13.40;99.90;;;;;;5024097;28;20423;-80
2022/10/21 00:28:47;;;;;;;6.57;5.20;;;13.50;99.90;;;;;;5024097;28;20392;-81
2022/10/21 00:31:33;;;;;;;8.47;5.07;;;13.40;99.90;;;;;;5023474;28;20505;-81
2022/10/21 00:34:18;;;;;;;6.40;5.50;;;13.30;99.90;;;;;;5023910;28;20470;-81
2022/10/21 00:37:02;;;;;;;10.87;6.40;;;13.50;99.90;;;;;;5023732;28;20395;-81
2022/10/21 00:39:47;;;;;;;7.63;5.57;;;13.50;99.90;;;;;;5023659;28;20439;-80
2022/10/21 00:42:36;;;;;;;6.20;5.03;;;13.50;99.90;;;;;;5023616;28;20403;-82
2022/10/21 00:45:24;;;;;;;6.87;5.43;;;13.50;99.90;;;;;;5023479;28;20956;-80
2022/10/21 00:48:34;;;;;;;6.37;5.80;;;13.50;99.90;;;;;;5024044;28;20384;-81
2022/10/21 00:51:19;;;;;;;6.10;5.60;;;13.50;99.90;;;;;;5024391;28;20979;-81
2022/10/21 00:54:05;;;;;;;6.47;5.50;;;13.50;99.90;;;;;;5023386;28;20383;-82
2022/10/21 00:56:50;;;;;;;6.50;5.50;;;13.40;99.90;;;;;;5023727;28;20426;-81
2022/10/21 00:59:41;;;;;;;7.07;6.00;;;13.50;99.90;;;;;;5023431;28;20448;-81
2022/10/21 01:02:25;;;;;;;7.83;4.90;;;13.50;99.90;;;;;;5023571;28;20435;-80
2022/10/21 01:05:11;;;;;;;6.93;5.33;;;13.60;99.90;;;;;;5023366;28;20864;-81
2022/10/21 01:07:56;;;;;;;5.47;5.07;;;13.70;99.90;;;;;;5023551;28;20391;-81
2022/10/21 01:10:41;;;;;;;5.77;5.00;;;13.70;99.90;;;;;;5024566;28;21006;-81
2022/10/21 01:13:56;;;;;;;7.40;6.07;;;13.70;99.90;;;;;;5024337;28;20387;-81
2022/10/21 01:16:52;;;;;;;7.57;5.73;;;13.70;99.90;;;;;;5023559;28;20412;-81
2022/10/21 01:20:05;;;;;;;6.30;5.20;;;13.50;99.90;;;;;;5023854;28;20964;-81
2022/10/21 01:23:20;;;;;;;9.63;6.00;;;13.50;99.90;;;;;;5024129;28;20399;-81
2022/10/21 01:26:24;;;;;;;7.00;5.50;;;13.40;99.90;;;;;;5023244;28;20451;-80
2022/10/21 01:29:35;;;;;;;5.47;4.97;;;13.40;99.90;;;;;;5023032;28;20383;-81
2022/10/21 01:32:35;;;;;;;8.13;6.40;;;13.50;99.90;;;;;;5022633;28;20399;-81
2022/10/21 01:35:23;;;;;;;6.23;4.90;;;13.60;99.90;;;;;;5022563;28;20376;-81
2022/10/21 01:38:21;;;;;;;7.67;6.37;;;13.70;99.90;;;;;;5022917;28;20372;-82
2022/10/21 01:41:18;;;;;;;7.63;6.80;;;13.80;99.90;;;;;;5023217;28;20390;-81
2022/10/21 01:44:25;;;;;;;7.50;5.63;;;13.70;99.90;;;;;;5022495;28;20960;-82
2022/10/21 01:47:19;;;;;;;8.17;5.83;;;13.70;99.90;;;;;;5022809;28;20384;-81
2022/10/21 01:50:15;;;;;;;8.47;5.70;;;13.80;99.90;;;;;;5021360;28;20535;-80
2022/10/21 01:53:05;;;;;;;7.33;6.10;;;13.90;99.90;;;;;;5022504;28;20380;-79
2022/10/21 01:55:51;;;;;;;6.70;5.67;;;13.80;99.90;;;;;;5023426;28;20783;-81
2022/10/21 01:58:37;;;;;;;6.40;5.80;;;13.80;99.90;;;;;;5023517;28;20516;-81
2022/10/21 02:01:23;;;;;;;8.67;5.33;;;13.70;99.90;;;;;;5023265;28;20434;-82
2022/10/21 02:04:11;;;;;;;6.70;5.30;;;13.70;99.90;;;;;;5022439;28;20912;-82
2022/10/21 02:06:55;;;;;;;7.20;5.37;;;13.70;99.90;;;;;;5022425;28;20380;-82
2022/10/21 02:09:39;;;;;;;5.50;5.00;;;13.70;99.90;;;;;;5023051;28;20446;-81
2022/10/21 02:12:26;;;;;;;6.00;5.00;;;13.80;99.90;;;;;;5023210;28;20384;-81
2022/10/21 02:15:12;;;;;;;7.93;5.37;;;13.70;99.90;;;;;;5023192;28;20403;-81
2022/10/21 02:18:03;;;;;;;6.40;5.73;;;13.80;99.90;;;;;;5022558;28;20734;-80
2022/10/21 02:20:54;;;;;;;8.63;5.83;;;13.70;99.90;;;;;;5027719;28;20458;-78
2022/10/21 02:23:48;;;;;;;8.60;5.17;;;13.80;99.90;;;;;;5024454;28;20405;-82
2022/10/21 02:26:32;;;;;;;6.93;5.83;;;13.70;99.90;;;;;;5009359;28;20392;-80
2022/10/21 02:29:22;;;;;;;7.30;5.30;;;13.70;99.90;;;;;;5024126;28;20534;-80
2022/10/21 02:32:25;;;;;;;6.13;5.27;;;13.70;99.90;;;;;;5022963;28;20404;-80
2022/10/21 02:35:22;;;;;;;9.60;4.70;;;13.60;99.90;;;;;;5022520;28;20391;-81
2022/10/21 02:38:25;;;;;;;6.17;5.47;;;13.40;99.90;;;;;;5022288;28;20392;-82
2022/10/21 02:41:12;;;;;;;5.53;4.77;;;13.20;99.90;;;;;;5022467;28;20466;-81
2022/10/21 02:43:59;;;;;;;9.00;5.50;;;13.10;99.90;;;;;;5023214;28;20404;-82
2022/10/21 02:46:46;;;;;;;5.00;4.60;;;13.00;99.90;;;;;;5024696;28;20431;-81
2022/10/21 02:49:31;;;;;;;8.67;6.00;;;12.80;99.90;;;;;;5026548;28;20868;-82
2022/10/21 02:52:15;;;;;;;5.77;5.20;;;12.90;99.90;;;;;;5026682;28;20395;-81
2022/10/21 02:54:59;;;;;;;8.60;5.70;;;12.80;99.90;;;;;;5026869;28;20484;-81
2022/10/21 02:57:43;;;;;;;7.13;6.43;;;12.60;99.90;;;;;;5027030;28;20426;-81
2022/10/21 03:00:27;;;;;;;6.13;5.37;;;12.50;99.90;;;;;;5027362;28;20896;-81
2022/10/21 03:03:11;;;;;;;6.90;6.27;;;12.50;99.90;;;;;;5027011;28;20383;-81
2022/10/21 03:05:56;;;;;;;11.33;5.17;;;12.50;99.90;;;;;;5027093;28;20380;-82
2022/10/21 03:08:40;;;;;;;6.03;5.43;;;12.40;99.90;;;;;;5026837;28;20383;-81
2022/10/21 03:11:24;;;;;;;7.53;5.80;;;12.50;99.90;;;;;;5027117;28;20447;-81
2022/10/21 03:14:09;;;;;;;7.67;5.70;;;12.30;99.90;;;;;;5027734;28;20430;-81
2022/10/21 03:16:53;;;;;;;5.87;5.30;;;12.20;99.90;;;;;;5027763;28;20456;-81
2022/10/21 03:19:37;;;;;;;6.37;5.60;;;12.10;99.90;;;;;;5026431;28;20393;-81
2022/10/21 03:22:21;;;;;;;9.57;5.67;;;12.00;99.90;;;;;;5027130;28;20398;-81
2022/10/21 03:25:06;;;;;;;7.63;6.80;;;11.90;99.90;;;;;;5026841;28;20391;-80
2022/10/21 03:27:50;;;;;;;9.60;6.87;;;11.90;99.90;;;;;;5028915;28;20431;-81
2022/10/21 03:30:34;;;;;;;6.97;6.27;;;11.90;99.90;;;;;;5029810;28;20451;-78
2022/10/21 03:33:18;;;;;;;7.53;6.50;;;11.90;99.90;;;;;;5032746;28;20448;-80
2022/10/21 03:36:03;;;;;;;9.53;6.40;;;12.10;99.90;;;;;;5034108;28;20380;-78
2022/10/21 03:38:47;;;;;;;6.80;5.87;;;12.10;99.90;;;;;;5033510;28;20395;-78
2022/10/21 03:41:31;;;;;;;9.80;6.67;;;11.90;99.90;;;;;;5030606;28;20411;-81
2022/10/21 03:44:16;;;;;;;9.03;6.03;;;12.10;99.90;;;;;;5027186;28;20452;-82
2022/10/21 03:47:00;;;;;;;7.33;6.63;;;12.20;99.90;;;;;;5016128;28;20447;-82
2022/10/21 03:49:44;;;;;;;9.87;7.83;;;12.10;99.90;;;;;;5022148;28;20415;-82
2022/10/21 03:52:28;;;;;;;6.87;6.27;;;12.20;99.90;;;;;;5026537;28;20468;-81
2022/10/21 03:55:12;;;;;;;12.80;6.60;;;12.20;99.90;;;;;;5019002;28;20411;-80
2022/10/21 03:57:56;;;;;;;10.80;7.57;;;12.20;99.90;;;;;;5038031;28;20439;-80
2022/10/21 04:00:41;;;;;;;11.03;6.53;;;12.20;99.90;;;;;;5039230;28;20387;-80
2022/10/21 04:03:25;;;;;;;7.23;6.53;;;12.20;99.90;;;;;;5039978;28;20383;-79
2022/10/21 04:06:09;;;;;;;10.30;7.73;;;12.20;99.90;;;;;;5028678;28;20412;-81
2022/10/21 04:08:53;;;;;;;8.83;7.03;;;12.20;99.90;;;;;;5025742;28;20483;-80
2022/10/21 04:11:38;;;;;;;8.93;6.63;;;12.20;99.90;;;;;;5025219;28;20455;-81
2022/10/21 04:14:22;;;;;;;8.70;6.17;;;12.20;99.90;;;;;;5025621;28;20392;-81
2022/10/21 04:17:07;;;;;;;12.10;7.77;;;12.20;99.90;;;;;;5026365;28;20388;-81
2022/10/21 04:19:51;;;;;;;7.77;7.07;;;12.20;99.90;;;;;;5026053;28;21063;-82
2022/10/21 04:22:35;;;;;;;8.43;7.17;;;12.30;99.90;;;;;;5025641;28;20443;-80
2022/10/21 04:25:19;;;;;;;9.03;6.50;;;12.30;99.90;;;;;;5025848;28;20391;-80
2022/10/21 04:28:03;;;;;;;7.50;6.57;;;12.30;99.90;;;;;;5025828;28;20391;-81
2022/10/21 04:30:49;;;;;;;15.10;8.40;;;12.30;99.90;;;;;;5025886;28;20950;-80
2022/10/21 04:33:34;;;;;;;7.77;6.87;;;12.40;99.90;;;;;;5024265;28;20408;-82
2022/10/21 04:36:18;;;;;;;10.00;7.53;;;12.30;99.90;;;;;;5026123;28;20384;-81
2022/10/21 04:39:02;;;;;;;7.73;7.03;;;12.40;99.90;;;;;;5025651;28;20411;-82
2022/10/21 04:41:49;;;;;;;9.97;8.37;;;12.40;99.90;;;;;;5009203;28;20416;-82
2022/10/21 04:44:33;;;;;;;6.70;6.10;;;12.40;99.90;;;;;;5005421;28;20444;-81
2022/10/21 04:47:18;;;;;;;9.60;7.30;;;12.50;99.90;;;;;;5005948;28;20457;-81
2022/10/21 04:50:02;;;;;;;8.30;7.50;;;12.60;99.90;;;;;;5005674;28;20408;-80
2022/10/21 04:52:46;;;;;;;8.20;7.40;;;12.50;99.90;;;;;;5006368;28;20380;-82
2022/10/21 04:55:30;;;;;;;9.13;7.40;;;12.50;99.90;;;;;;5008454;28;20444;-81
2022/10/21 04:58:34;;;;;;;9.33;7.10;;;12.40;99.90;;;;;;5021830;28;20451;-81
2022/10/21 05:01:19;;;;;;;8.47;6.70;;;12.30;99.90;;;;;;4987925;28;20456;-81
2022/10/21 05:04:03;;;;;;;8.83;7.20;;;12.20;99.90;;;;;;4991160;28;20409;-81
2022/10/21 05:06:47;;;;;;;16.63;7.60;;;12.20;99.90;;;;;;4999403;28;20464;-80
2022/10/21 05:09:32;;;;;;;7.87;6.80;;;12.20;99.90;;;;;;5000143;28;20432;-81
2022/10/21 05:12:36;;;;;;;7.53;6.83;;;12.20;99.90;;;;;;4993499;28;20559;-81
2022/10/21 05:15:20;;;;;;;23.43;7.63;;;12.10;99.90;;;;;;4959272;29;20494;-81
2022/10/21 05:18:04;;;;;;;9.87;8.40;;;12.00;99.90;;;;;;4960939;29;20462;-81
2022/10/21 05:20:50;;;;;;;15.40;7.20;;;12.00;99.90;;;;;;4952076;29;20541;-83
2022/10/21 05:23:35;;;;;;;9.20;8.27;;;12.00;99.90;;;;;;4962727;28;20462;-82
2022/10/21 05:26:19;;;;;;;8.10;7.30;;;12.10;99.90;;;;;;4964482;29;20442;-81
2022/10/21 05:29:03;;;;;;;9.13;7.10;;;12.20;99.90;;;;;;4961137;29;20870;-81
2022/10/21 05:31:48;;;;;;;9.60;6.93;;;12.00;99.90;;;;;;4960914;28;20480;-81
2022/10/21 05:34:32;;;;;;;10.43;7.50;;;11.90;99.90;;;;;;4980218;28;20601;-82
2022/10/21 05:37:16;;;;;;;12.23;7.97;;;11.90;99.90;;;;;;4954211;28;20966;-81
2022/10/21 05:40:06;;;;;;;10.70;7.00;;;12.00;99.90;;;;;;4978809;28;20469;-81
2022/10/21 05:42:50;;;;;;;8.07;6.60;;;12.00;99.90;;;;;;4968092;28;20478;-81
2022/10/21 05:45:35;;;;;;;8.97;7.97;;;12.10;99.90;;;;;;4988989;28;20889;-79
2022/10/21 05:48:19;;;;;;;9.60;8.60;;;12.20;99.90;;;;;;4996686;28;20412;-79
2022/10/21 05:51:04;;;;;;;9.50;7.43;;;12.30;99.90;;;;;;5013430;28;20491;-79
2022/10/21 05:53:49;;;;;;;12.17;8.10;;;12.50;99.90;;;;;;5017421;28;20963;-82
2022/10/21 05:56:34;;;;;;;17.20;10.00;;;12.60;99.90;;;;;;5022390;28;20475;-81
2022/10/21 05:59:18;;;;;;;11.77;8.50;;;12.70;99.90;;;;;;5021753;28;20431;-81
2022/10/21 06:02:02;;;;;;;9.30;8.40;;;12.80;99.90;;;;;;5013310;28;20796;-81
2022/10/21 06:04:46;;;;;;;9.90;8.67;;;12.80;99.90;;;;;;5016770;28;20459;-82
2022/10/21 06:07:30;;;;;;;12.33;10.43;;;12.80;99.90;;;;;;5007915;28;20439;-81
2022/10/21 06:10:15;;;;;;;15.30;7.93;;;12.90;99.90;;;;;;4999561;28;20510;-81
2022/10/21 06:13:00;;;;;;;13.00;9.03;;;12.80;99.90;;;;;;5017900;28;20443;-81
2022/10/21 06:15:44;;;;;;;9.30;8.20;;;12.80;99.90;;;;;;5016429;28;20423;-81
2022/10/21 06:18:28;;;;;;;10.67;8.77;;;12.90;99.90;;;;;;5013326;28;20439;-82
2022/10/21 06:21:12;;;;;;;10.23;8.43;;;12.90;99.90;;;;;;5014950;28;20454;-81
2022/10/21 06:23:57;;;;;;;8.40;7.50;;;12.90;99.90;;;;;;5017384;28;20447;-81
2022/10/21 06:26:41;;;;;;;14.40;9.30;;;12.90;99.90;;;;;;5012049;28;20471;-81
2022/10/21 06:29:26;;;;;;;9.43;8.50;;;12.90;99.90;;;;;;5002387;28;20516;-81
2022/10/21 06:32:11;;;;;;;12.17;8.53;;;12.70;99.90;;;;;;5009074;28;20470;-81
2022/10/21 06:34:55;;;;;;;10.30;7.00;;;12.70;99.90;;;;;;5004869;28;20493;-81
2022/10/21 06:37:39;;;;;;;11.63;9.00;;;12.60;99.90;;;;;;5009568;28;21032;-80
2022/10/21 06:40:23;;;;;;;9.97;8.97;;;12.60;99.90;;;;;;5002159;28;20516;-81
2022/10/21 06:43:07;;;;;;;10.07;8.87;;;12.70;99.90;;;;;;5011609;28;20474;-81
2022/10/21 06:45:52;;;;;;;8.97;7.67;;;12.70;99.90;;;;;;4986874;28;20446;-81
2022/10/21 06:48:36;;;;;;;12.20;9.23;;;12.80;99.90;;;;;;5003325;28;20439;-81
2022/10/21 06:51:23;;;;;;;12.03;8.77;;;12.80;99.90;;;;;;5006200;28;20478;-80
2022/10/21 06:54:07;;;;;;;11.07;10.00;;;12.80;99.90;;;;;;5005995;28;20966;-79
2022/10/21 06:56:51;;;;;;;14.80;9.10;;;12.80;99.90;;;;;;5003654;28;20467;-79
2022/10/21 06:59:35;;;;;;;19.70;10.37;;;12.80;99.90;;;;;;5006066;28;20775;-81
2022/10/21 07:02:20;;;;;;;21.07;10.47;;;12.90;99.90;;;;;;5002566;28;21271;-81
2022/10/21 07:05:05;;;;;;;18.27;10.80;;;13.00;99.90;;;;;;5003775;28;20551;-82
2022/10/21 07:07:49;;;;;;;20.60;14.33;;;13.10;99.90;;;;;;5006583;28;20462;-81
2022/10/21 07:10:34;;;;;;;17.90;12.67;;;13.20;99.90;;;;;;5004215;28;20532;-81
2022/10/21 07:13:18;;;;;;;12.23;8.67;;;13.30;99.90;;;;;;4998903;28;20432;-81
2022/10/21 07:16:05;;;;;;;17.93;11.53;;;13.40;99.90;;;;;;5005810;28;20444;-81
2022/10/21 07:18:49;;;;;;;22.20;14.07;;;13.40;99.90;;;;;;5007234;28;20536;-81
2022/10/21 07:21:34;;;;;;;17.93;11.03;;;13.50;99.90;;;;;;5005797;28;20646;-81
2022/10/21 07:24:18;;;;;;;19.60;10.67;;;13.40;99.90;;;;;;5004158;28;20434;-81
2022/10/21 07:27:02;;;;;;;21.17;14.20;;;13.40;99.90;;;;;;5005504;28;20930;-81
2022/10/21 07:29:46;;;;;;;14.27;11.33;;;13.40;99.90;;;;;;5004166;28;20447;-81
2022/10/21 07:32:30;;;;;;;19.77;13.30;;;13.50;99.90;;;;;;5005474;28;20447;-80
2022/10/21 07:35:15;;;;;;;15.97;12.47;;;13.50;99.90;;;;;;5011000;28;20455;-81
2022/10/21 07:37:59;;;;;;;27.17;18.40;;;13.80;99.90;;;;;;5009744;28;20787;-81
2022/10/21 07:40:43;;;;;;;12.53;9.33;;;13.80;99.90;;;;;;5009770;28;20524;-81
2022/10/21 07:43:28;;;;;;;33.23;25.10;;;13.80;99.90;;;;;;5006460;28;20780;-82
2022/10/21 07:46:14;;;;;;;18.77;9.57;;;13.80;99.90;;;;;;5010449;28;20463;-81
2022/10/21 07:48:58;;;;;;;10.93;9.43;;;13.80;99.90;;;;;;5010296;28;20650;-82
2022/10/21 07:51:44;;;;;;;15.03;9.60;;;13.90;99.90;;;;;;5008429;28;20581;-79
2022/10/21 07:54:28;;;;;;;11.57;9.17;;;13.90;99.90;;;;;;5009017;28;20474;-82
2022/10/21 07:57:12;;;;;;;16.30;9.07;;;13.90;99.90;;;;;;5007109;28;20511;-79
2022/10/21 07:59:56;;;;;;;11.60;8.93;;;13.90;99.90;;;;;;5005474;28;20432;-82
2022/10/21 08:02:40;;;;;;;11.57;9.63;;;13.90;99.90;;;;;;5003637;28;20424;-82
2022/10/21 08:05:25;;;;;;;15.17;11.60;;;13.90;99.90;;;;;;5007481;28;20947;-81
2022/10/21 08:08:10;;;;;;;13.17;9.37;;;13.80;99.90;;;;;;5009619;28;20462;-82
2022/10/21 08:10:55;;;;;;;10.07;9.10;;;13.70;99.90;;;;;;5006346;28;20470;-82
2022/10/21 08:13:40;;;;;;;23.23;9.70;;;13.70;99.90;;;;;;4992506;28;20980;-82
2022/10/21 08:16:25;;;;;;;14.43;9.07;;;13.70;99.90;;;;;;5009638;28;20452;-80
2022/10/21 08:19:17;;;;;;;9.77;8.43;;;13.80;99.90;;;;;;5008801;28;20455;-81
2022/10/21 08:22:02;;;;;;;11.37;9.30;;;13.90;99.90;;;;;;5003968;28;20470;-79
2022/10/21 08:24:46;;;;;;;12.83;9.70;;;14.00;99.90;;;;;;5007592;28;20431;-81
2022/10/21 08:27:30;;;;;;;12.10;9.43;;;14.10;99.90;;;;;;5010460;28;20527;-81
2022/10/21 08:30:14;;;;;;;22.43;13.47;;;14.10;99.90;;;;;;5009636;28;20454;-81
2022/10/21 08:32:59;;;;;;;12.83;11.07;;;14.20;99.90;;;;;;5007982;28;20440;-81
2022/10/21 08:35:44;;;;;;;18.00;10.87;;;14.20;99.90;;;;;;5004199;28;20891;-80
2022/10/21 08:38:28;;;;;;;19.77;9.43;;;14.20;99.90;;;;;;5010612;28;20544;-80
2022/10/21 08:41:38;;;;;;;14.87;9.27;;;14.10;99.90;;;;;;5012702;28;20447;-80
2022/10/21 08:44:37;;;;;;;18.70;10.37;;;14.00;99.90;;;;;;5007103;28;21870;-81
2022/10/21 08:47:35;;;;;;;15.27;12.90;;;13.90;99.90;;;;;;4993247;28;20501;-82
2022/10/21 08:50:37;;;;;;;20.43;12.17;;;14.00;99.90;;;;;;5018069;28;21006;-80
2022/10/21 08:53:39;;;;;;;16.67;10.53;;;14.00;99.90;;;;;;5008382;28;20423;-80
2022/10/21 08:56:24;;;;;;;16.80;10.10;;;14.00;99.90;;;;;;5003184;28;20514;-82
2022/10/21 08:59:28;;;;;;;15.23;11.73;;;13.90;99.90;;;;;;5008658;28;20522;-81
2022/10/21 09:02:36;;;;;;;10.30;7.93;;;13.90;99.90;;;;;;5003317;28;20418;-82
2022/10/21 09:05:55;;;;;;;13.67;12.17;;;13.90;99.90;;;;;;5008064;28;20525;-81
2022/10/21 09:09:04;;;;;;;14.20;9.30;;;13.90;99.90;;;;;;5002150;28;20523;-81
2022/10/21 09:12:14;;;;;;;12.37;7.73;;;13.80;99.90;;;;;;5010177;28;20466;-79
2022/10/21 09:15:11;;;;;;;8.97;7.50;;;13.80;99.90;;;;;;5011151;28;20558;-79
2022/10/21 09:18:15;;;;;;;16.40;8.43;;;13.80;99.90;;;;;;5010127;28;20500;-78
2022/10/21 09:21:25;;;;;;;18.63;8.40;;;13.70;99.90;;;;;;5010803;28;20518;-78
2022/10/21 09:24:21;;;;;;;8.80;7.90;;;13.80;99.90;;;;;;5011185;28;20439;-81
2022/10/21 09:27:08;;;;;;;12.77;9.73;;;13.80;99.90;;;;;;5011843;28;20506;-79
2022/10/21 09:29:58;;;;;;;15.00;7.77;;;13.70;99.90;;;;;;5005802;28;20470;-81
2022/10/21 09:32:51;;;;;;;12.73;8.73;;;13.80;99.90;;;;;;4985692;28;20443;-81
2022/10/21 09:35:45;;;;;;;10.07;9.07;;;13.80;99.90;;;;;;5010679;28;20471;-79
2022/10/21 09:38:54;;;;;;;10.70;9.40;;;13.90;99.90;;;;;;5010770;28;20438;-79
2022/10/21 09:41:43;;;;;;;14.33;9.73;;;14.00;99.90;;;;;;5001828;28;20467;-81
2022/10/21 09:44:28;;;;;;;14.53;9.37;;;14.20;99.90;;;;;;5012108;28;20427;-81
2022/10/21 09:47:22;;;;;;;18.70;9.90;;;14.30;99.90;;;;;;5007609;28;20924;-80
2022/10/21 09:50:15;;;;;;;12.80;10.20;;;14.30;99.90;;;;;;5008484;28;20527;-81
2022/10/21 09:53:08;;;;;;;10.77;9.03;;;14.50;99.90;;;;;;4998659;28;20935;-81
2022/10/21 09:56:01;;;;;;;12.03;8.77;;;14.50;99.90;;;;;;5002383;28;20435;-81
2022/10/21 09:59:03;;;;;;;12.93;9.80;;;14.40;99.90;;;;;;5002793;28;20467;-81
2022/10/21 10:01:48;;;;;;;11.43;9.43;;;14.50;99.90;;;;;;5003855;28;20939;-79
2022/10/21 10:04:34;;;;;;;16.30;9.07;;;14.60;99.90;;;;;;5010103;28;20480;-80
2022/10/21 10:07:31;;;;;;;13.10;8.37;;;14.60;99.90;;;;;;5012338;28;20446;-79
2022/10/21 10:10:31;;;;;;;14.10;8.27;;;14.60;99.90;;;;;;5009632;28;20596;-78
2022/10/21 10:13:18;;;;;;;15.67;9.03;;;14.60;99.90;;;;;;5005901;28;20424;-80
2022/10/21 10:16:33;;;;;;;16.90;9.97;;;14.50;99.90;;;;;;5006386;28;20428;-81
2022/10/21 10:19:21;;;;;;;14.13;9.30;;;14.50;99.90;;;;;;5002956;28;20979;-80
2022/10/21 10:22:11;;;;;;;13.30;9.60;;;14.40;99.90;;;;;;5001777;28;20451;-80
2022/10/21 10:25:16;;;;;;;10.10;8.03;;;14.40;99.90;;;;;;4998186;28;20479;-81
2022/10/21 10:28:23;;;;;;;12.30;8.87;;;14.40;99.90;;;;;;4999963;28;20471;-80
2022/10/21 10:31:07;;;;;;;16.93;9.83;;;14.50;99.90;;;;;;5008179;28;20451;-79
2022/10/21 10:33:55;;;;;;;13.50;10.50;;;14.60;99.90;;;;;;4999906;28;21012;-82
2022/10/21 10:36:40;;;;;;;18.53;10.57;;;14.70;99.90;;;;;;5001543;28;20546;-79
2022/10/21 10:39:32;;;;;;;17.10;10.33;;;14.70;99.90;;;;;;5010155;28;20439;-79
2022/10/21 10:42:20;;;;;;;14.07;8.50;;;14.70;99.90;;;;;;4987632;28;20775;-81
2022/10/21 10:45:14;;;;;;;15.80;10.43;;;14.60;99.90;;;;;;4998513;28;20543;-81
2022/10/21 10:48:02;;;;;;;16.57;10.20;;;14.70;99.90;;;;;;5001407;28;20427;-82
2022/10/21 10:50:48;;;;;;;12.90;9.33;;;14.70;99.90;;;;;;5001284;28;21588;-81
2022/10/21 10:53:36;;;;;;;12.43;9.80;;;14.60;99.90;;;;;;4985129;28;20501;-80
2022/10/21 10:56:29;;;;;;;11.03;9.63;;;14.70;99.90;;;;;;5005327;28;20603;-80
2022/10/21 10:59:40;;;;;;;14.10;9.83;;;14.70;99.90;;;;;;4985820;28;20518;-77
2022/10/21 11:02:40;;;;;;;15.53;9.50;;;14.60;99.90;;;;;;5000895;28;20502;-79
2022/10/21 11:05:41;;;;;;;14.53;11.33;;;14.60;99.90;;;;;;5010848;28;20828;-81
2022/10/21 11:08:31;;;;;;;10.50;8.23;;;14.70;99.90;;;;;;5012232;28;20471;-79
2022/10/21 11:11:33;;;;;;;11.67;7.50;;;14.60;99.90;;;;;;5012989;28;20462;-80
2022/10/21 11:14:18;;;;;;;12.13;8.87;;;14.60;99.90;;;;;;5007367;28;20481;-81
2022/10/21 11:17:12;;;;;;;13.43;9.67;;;14.70;99.90;;;;;;5008674;28;20515;-81
2022/10/21 11:20:14;;;;;;;11.20;9.60;;;14.70;99.90;;;;;;5009218;28;21121;-80
2022/10/21 11:23:17;;;;;;;13.10;10.60;;;14.70;99.90;;;;;;5005761;28;20434;-80
2022/10/21 11:26:12;;;;;;;13.40;10.07;;;14.70;99.90;;;;;;5005684;28;20528;-78
2022/10/21 11:29:20;;;;;;;12.23;10.03;;;14.70;99.90;;;;;;4991287;28;20858;-80
2022/10/21 11:32:23;;;;;;;12.50;10.77;;;14.70;99.90;;;;;;5008632;28;20837;-81
2022/10/21 11:35:19;;;;;;;15.40;9.77;;;14.70;99.90;;;;;;5001905;28;20434;-80
2022/10/21 11:38:22;;;;;;;14.43;10.87;;;14.70;99.90;;;;;;5001870;28;20511;-80
2022/10/21 11:41:25;;;;;;;12.63;10.23;;;14.60;99.90;;;;;;5002520;28;20432;-81
2022/10/21 11:44:23;;;;;;;16.70;9.80;;;14.70;99.90;;;;;;4991526;28;20597;-81
2022/10/21 11:47:17;;;;;;;17.73;12.20;;;14.70;99.90;;;;;;5007459;28;20570;-81
2022/10/21 11:50:36;;;;;;;11.50;9.87;;;14.70;99.90;;;;;;5007162;28;20439;-80
2022/10/21 11:53:42;;;;;;;15.80;10.00;;;14.80;99.90;;;;;;5005553;28;20853;-77
2022/10/21 11:56:58;;;;;;;14.37;9.50;;;14.80;99.90;;;;;;5007151;28;21022;-79
2022/10/21 12:00:06;;;;;;;10.73;9.60;;;14.80;99.90;;;;;;5007317;28;20498;-79
2022/10/21 12:03:18;;;;;;;23.07;11.50;;;14.70;99.90;;;;;;5005994;28;20438;-80
2022/10/21 12:06:16;;;;;;;11.90;10.10;;;14.70;99.90;;;;;;5008888;28;20447;-79
2022/10/21 12:09:05;;;;;;;12.70;10.37;;;14.70;99.90;;;;;;5003901;28;20756;-80
2022/10/21 12:12:03;;;;;;;12.30;11.00;;;14.60;99.90;;;;;;5002696;28;20490;-79
2022/10/21 12:14:53;;;;;;;12.40;10.73;;;14.60;99.90;;;;;;5002498;28;20451;-80
2022/10/21 12:17:38;;;;;;;11.73;10.47;;;14.60;99.90;;;;;;5006610;28;20957;-80
2022/10/21 12:20:25;;;;;;;11.73;10.30;;;14.50;99.90;;;;;;5005398;28;20510;-82
2022/10/21 12:23:14;;;;;;;14.97;11.80;;;14.60;99.90;;;;;;5002817;28;20451;-80
2022/10/21 12:26:28;;;;;;;12.57;9.80;;;14.50;99.90;;;;;;4990391;28;20439;-79
2022/10/21 12:29:27;;;;;;;16.70;11.00;;;14.60;99.90;;;;;;5009610;28;20432;-81
2022/10/21 12:32:41;;;;;;;10.90;9.70;;;14.80;99.90;;;;;;4965483;28;20522;-79
2022/10/21 12:35:43;;;;;;;12.27;11.03;;;14.80;99.90;;;;;;5006485;28;20443;-79
2022/10/21 12:38:48;;;;;;;14.87;10.50;;;14.80;99.90;;;;;;5007345;28;20430;-81
2022/10/21 12:41:35;;;;;;;12.63;9.73;;;14.80;99.90;;;;;;5006214;28;20486;-81
2022/10/21 12:44:23;;;;;;;13.10;9.23;;;15.10;99.90;;;;;;5007506;28;20478;-80
2022/10/21 12:47:28;;;;;;;11.30;9.97;;;15.10;99.90;;;;;;5008688;28;21114;-80
2022/10/21 12:50:31;;;;;;;13.47;8.20;;;15.30;99.90;;;;;;5006227;28;21129;-81
2022/10/21 12:53:34;;;;;;;13.73;9.87;;;15.70;99.90;;;;;;5006104;28;20482;-81
2022/10/21 12:56:41;;;;;;;11.63;8.83;;;16.20;99.90;;;;;;5008608;28;20925;-81
2022/10/21 12:59:32;;;;;;;10.90;9.10;;;16.40;99.90;;;;;;5008211;28;20424;-80
2022/10/21 13:02:24;;;;;;;8.77;7.87;;;16.50;99.90;;;;;;4992534;28;20553;-79
2022/10/21 13:05:09;;;;;;;7.73;7.03;;;16.30;99.90;;;;;;4991315;28;20448;-81
2022/10/21 13:08:13;;;;;;;10.50;7.53;;;16.10;99.90;;;;;;4979210;28;20456;-81
2022/10/21 13:11:11;;;;;;;11.37;9.60;;;16.10;99.90;;;;;;4985128;28;20468;-80
2022/10/21 13:14:29;;;;;;;10.83;6.67;;;16.00;99.90;;;;;;4985480;28;20480;-81
2022/10/21 13:17:46;;;;;;;8.13;6.53;;;16.00;99.90;;;;;;4983626;28;20495;-80
2022/10/21 13:20:45;;;;;;;6.17;5.67;;;16.10;99.90;;;;;;4969410;28;20492;-82
2022/10/21 13:23:34;;;;;;;5.83;5.23;;;16.10;99.90;;;;;;4991073;28;20464;-81
2022/10/21 13:26:23;;;;;;;6.83;5.90;;;16.20;99.90;;;;;;4976399;28;20584;-81
2022/10/21 13:29:29;;;;;;;7.30;6.70;;;16.40;99.90;;;;;;4989539;28;20480;-81
2022/10/21 13:32:35;;;;;;;6.50;5.90;;;16.40;99.90;;;;;;4974332;28;20500;-81
2022/10/21 13:35:29;;;;;;;10.53;6.23;;;16.40;99.90;;;;;;5002587;28;20474;-80
2022/10/21 13:38:30;;;;;;;10.20;6.77;;;16.60;99.90;;;;;;5008318;28;20419;-80
2022/10/21 13:41:26;;;;;;;7.10;5.80;;;16.90;99.90;;;;;;5012066;28;20544;-80
2022/10/21 13:44:29;;;;;;;6.30;5.70;;;16.70;99.90;;;;;;5006616;28;20547;-79
2022/10/21 13:47:31;;;;;;;5.80;5.20;;;16.60;99.90;;;;;;5015555;28;20427;-79
2022/10/21 13:50:20;;;;;;;6.77;6.00;;;16.50;99.90;;;;;;5020260;28;20475;-81
2022/10/21 13:53:28;;;;;;;8.10;5.70;;;16.40;99.90;;;;;;5009149;28;20422;-80
2022/10/21 13:56:24;;;;;;;7.37;6.40;;;16.40;99.90;;;;;;5004234;28;20423;-80
2022/10/21 13:59:21;;;;;;;9.07;7.70;;;16.30;99.90;;;;;;5008656;28;20482;-80
2022/10/21 14:02:05;;;;;;;10.67;9.33;;;16.40;99.90;;;;;;5008453;28;20943;-80
2022/10/21 14:04:49;;;;;;;9.70;7.23;;;16.50;99.90;;;;;;5006291;28;20487;-81
2022/10/21 14:07:34;;;;;;;9.23;8.33;;;16.40;99.90;;;;;;5003732;28;20436;-82
2022/10/21 14:10:19;;;;;;;12.37;7.87;;;16.30;99.90;;;;;;5011001;28;20482;-81
2022/10/21 14:13:04;;;;;;;13.77;10.03;;;16.30;99.90;;;;;;5013938;28;20423;-81
2022/10/21 14:15:50;;;;;;;10.73;8.60;;;16.30;99.90;;;;;;5011439;28;20511;-80
2022/10/21 14:18:38;;;;;;;19.87;9.10;;;16.30;99.90;;;;;;5002916;28;20715;-79
2022/10/21 14:21:26;;;;;;;9.93;8.50;;;16.30;99.90;;;;;;5000189;28;20451;-80
2022/10/21 14:24:35;;;;;;;12.67;9.30;;;16.30;99.90;;;;;;5002490;28;20824;-80
2022/10/21 14:27:27;;;;;;;15.87;10.27;;;16.20;99.90;;;;;;5016851;28;20490;-78
2022/10/21 14:30:19;;;;;;;13.70;9.40;;;16.20;99.90;;;;;;5024071;28;20466;-78
2022/10/21 14:33:07;;;;;;;12.30;9.90;;;16.20;99.90;;;;;;5023803;28;20446;-79
2022/10/21 14:36:13;;;;;;;11.33;9.20;;;16.20;99.90;;;;;;5015992;28;20431;-79
2022/10/21 14:39:02;;;;;;;11.17;9.53;;;16.30;99.90;;;;;;5006935;28;20474;-81
2022/10/21 14:41:48;;;;;;;11.63;9.20;;;16.30;99.90;;;;;;5018613;28;20436;-78